IGO504 VOCI-VOBL
Flight info
| Callsign | IGO504 |
|---|---|
| Flight time | N/A |
| Altitude | 29000 |
| Route | CCB1C CCB W43 UGABA UGABA7E |
| Aircraft | A320/M-SDE3FGHIRWY/LB1 |
Departure
| Time | 2026-05-08 09:08 |
|---|---|
| Airport | Cochin International Airport (VOCI) |
Arrival
| Time | N/A |
|---|---|
| Airport | Kempegowda International Airport Bengaluru (VOBL) |
| Time | Latitude | Longitude | Altitude | Speed | Heading |
|---|---|---|---|---|---|
| 2026-05-08 08:18 | 10.15444 | 76.39553 | 38 ft | 0 kts | 357° |
| 2026-05-08 08:54 | 10.15433 | 76.39554 | 38 ft | 4 kts | 358° |
| 2026-05-08 08:54 | 10.15405 | 76.39554 | 39 ft | 4 kts | 3° |
| 2026-05-08 08:54 | 10.15379 | 76.39550 | 39 ft | 4 kts | 27° |
| 2026-05-08 08:55 | 10.15366 | 76.39537 | 37 ft | 1 kts | 88° |
| 2026-05-08 08:55 | 10.15366 | 76.39536 | 37 ft | 0 kts | 88° |
| 2026-05-08 09:00 | 10.15366 | 76.39546 | 39 ft | 3 kts | 89° |
| 2026-05-08 09:00 | 10.15366 | 76.39572 | 39 ft | 5 kts | 89° |
| 2026-05-08 09:00 | 10.15367 | 76.39614 | 39 ft | 7 kts | 88° |
| 2026-05-08 09:01 | 10.15370 | 76.39671 | 39 ft | 9 kts | 87° |
| 2026-05-08 09:01 | 10.15363 | 76.39731 | 39 ft | 9 kts | 118° |
| 2026-05-08 09:01 | 10.15302 | 76.39745 | 39 ft | 10 kts | 169° |
| 2026-05-08 09:01 | 10.15277 | 76.39810 | 39 ft | 11 kts | 88° |
| 2026-05-08 09:02 | 10.15280 | 76.39883 | 39 ft | 10 kts | 88° |
| 2026-05-08 09:02 | 10.15283 | 76.39961 | 39 ft | 12 kts | 88° |
| 2026-05-08 09:02 | 10.15287 | 76.40055 | 39 ft | 15 kts | 87° |
| 2026-05-08 09:02 | 10.15291 | 76.40167 | 39 ft | 17 kts | 88° |
| 2026-05-08 09:03 | 10.15296 | 76.40297 | 38 ft | 20 kts | 88° |
| 2026-05-08 09:03 | 10.15301 | 76.40446 | 38 ft | 22 kts | 88° |
| 2026-05-08 09:03 | 10.15307 | 76.40606 | 38 ft | 24 kts | 88° |
| 2026-05-08 09:03 | 10.15314 | 76.40783 | 38 ft | 26 kts | 88° |
| 2026-05-08 09:04 | 10.15320 | 76.40971 | 38 ft | 28 kts | 88° |
| 2026-05-08 09:04 | 10.15328 | 76.41171 | 38 ft | 29 kts | 88° |
| 2026-05-08 09:04 | 10.15335 | 76.41382 | 39 ft | 30 kts | 87° |
| 2026-05-08 09:04 | 10.15340 | 76.41521 | 39 ft | 11 kts | 88° |
| 2026-05-08 09:05 | 10.15335 | 76.41568 | 39 ft | 6 kts | 115° |
| 2026-05-08 09:05 | 10.15297 | 76.41586 | 39 ft | 6 kts | 175° |
| 2026-05-08 09:05 | 10.15277 | 76.41587 | 39 ft | 0 kts | 178° |
| 2026-05-08 09:06 | 10.15275 | 76.41587 | 39 ft | 1 kts | 178° |
| 2026-05-08 09:06 | 10.15260 | 76.41587 | 39 ft | 3 kts | 178° |
| 2026-05-08 09:06 | 10.15229 | 76.41588 | 37 ft | 6 kts | 179° |
| 2026-05-08 09:06 | 10.15182 | 76.41577 | 39 ft | 8 kts | 214° |
| 2026-05-08 09:07 | 10.15167 | 76.41514 | 18 ft | 8 kts | 269° |
| 2026-05-08 09:07 | 10.15166 | 76.41510 | 23 ft | 0 kts | 268° |
| 2026-05-08 09:07 | 10.15166 | 76.41486 | 38 ft | 12 kts | 268° |
| 2026-05-08 09:08 | 10.15154 | 76.41167 | 39 ft | 79 kts | 268° |
| 2026-05-08 09:08 | 10.15126 | 76.40408 | 38 ft | 133 kts | 268° |
| 2026-05-08 09:08 | 10.15084 | 76.39325 | 53 ft | 173 kts | 268° |
| 2026-05-08 09:08 | 10.15042 | 76.38086 | 641 ft | 174 kts | 267° |
| 2026-05-08 09:09 | 10.15016 | 76.36869 | 1377 ft | 172 kts | 268° |
| 2026-05-08 09:09 | 10.14994 | 76.35639 | 1843 ft | 184 kts | 269° |
| 2026-05-08 09:09 | 10.14966 | 76.34246 | 1987 ft | 212 kts | 268° |
| 2026-05-08 09:09 | 10.14978 | 76.32665 | 2265 ft | 236 kts | 279° |
| 2026-05-08 09:10 | 10.15718 | 76.31122 | 2599 ft | 257 kts | 316° |
| 2026-05-08 09:10 | 10.17263 | 76.30128 | 3138 ft | 269 kts | 339° |
| 2026-05-08 09:10 | 10.19025 | 76.29491 | 4017 ft | 269 kts | 345° |
| 2026-05-08 09:10 | 10.20818 | 76.28912 | 4902 ft | 271 kts | 344° |
| 2026-05-08 09:11 | 10.22610 | 76.28284 | 5746 ft | 275 kts | 342° |
| 2026-05-08 09:11 | 10.24402 | 76.27571 | 6535 ft | 279 kts | 340° |
| 2026-05-08 09:11 | 10.26218 | 76.26787 | 6815 ft | 285 kts | 339° |
| 2026-05-08 09:11 | 10.28021 | 76.25952 | 6976 ft | 286 kts | 338° |
| 2026-05-08 09:12 | 10.29832 | 76.25096 | 7763 ft | 288 kts | 338° |
| 2026-05-08 09:12 | 10.31660 | 76.24229 | 8616 ft | 291 kts | 339° |
| 2026-05-08 09:12 | 10.33507 | 76.23351 | 9387 ft | 295 kts | 339° |
| 2026-05-08 09:12 | 10.35356 | 76.22471 | 10073 ft | 299 kts | 339° |
| 2026-05-08 09:13 | 10.37373 | 76.21806 | 10308 ft | 314 kts | 359° |
| 2026-05-08 09:13 | 10.39545 | 76.22187 | 10465 ft | 326 kts | 28° |
| 2026-05-08 09:13 | 10.41295 | 76.23656 | 10862 ft | 332 kts | 54° |
| 2026-05-08 09:13 | 10.42455 | 76.25698 | 11405 ft | 337 kts | 66° |
| 2026-05-08 09:14 | 10.43249 | 76.27947 | 11992 ft | 341 kts | 73° |
| 2026-05-08 09:14 | 10.43951 | 76.30260 | 12584 ft | 344 kts | 72° |
| 2026-05-08 09:14 | 10.44680 | 76.32589 | 13150 ft | 348 kts | 72° |
| 2026-05-08 09:14 | 10.45412 | 76.34947 | 13717 ft | 351 kts | 72° |
| 2026-05-08 09:15 | 10.46138 | 76.37328 | 14230 ft | 355 kts | 72° |
| 2026-05-08 09:15 | 10.46856 | 76.39739 | 14715 ft | 358 kts | 73° |
| 2026-05-08 09:15 | 10.47567 | 76.42175 | 15226 ft | 361 kts | 73° |
| 2026-05-08 09:15 | 10.48277 | 76.44636 | 15681 ft | 366 kts | 74° |
| 2026-05-08 09:16 | 10.48994 | 76.47132 | 16179 ft | 369 kts | 74° |
| 2026-05-08 09:16 | 10.49713 | 76.49647 | 16662 ft | 373 kts | 74° |
| 2026-05-08 09:16 | 10.50516 | 76.52174 | 17131 ft | 379 kts | 68° |
| 2026-05-08 09:16 | 10.51769 | 76.54536 | 17647 ft | 383 kts | 56° |
| 2026-05-08 09:17 | 10.53491 | 76.56613 | 18085 ft | 388 kts | 45° |
| 2026-05-08 09:17 | 10.55469 | 76.58512 | 18469 ft | 392 kts | 45° |
| 2026-05-08 09:17 | 10.57464 | 76.60425 | 18881 ft | 395 kts | 44° |
| 2026-05-08 09:17 | 10.59469 | 76.62354 | 19278 ft | 399 kts | 44° |
| 2026-05-08 09:18 | 10.61492 | 76.64307 | 19690 ft | 402 kts | 44° |
| 2026-05-08 09:18 | 10.63527 | 76.66276 | 20095 ft | 405 kts | 44° |
| 2026-05-08 09:18 | 10.65575 | 76.68260 | 20486 ft | 408 kts | 44° |
| 2026-05-08 09:18 | 10.67637 | 76.70258 | 20905 ft | 411 kts | 44° |
| 2026-05-08 09:19 | 10.69712 | 76.72270 | 21321 ft | 413 kts | 44° |
| 2026-05-08 09:19 | 10.71797 | 76.74292 | 21713 ft | 416 kts | 44° |
| 2026-05-08 09:19 | 10.73898 | 76.76332 | 22117 ft | 419 kts | 44° |
| 2026-05-08 09:19 | 10.76011 | 76.78386 | 22487 ft | 422 kts | 44° |
| 2026-05-08 09:20 | 10.78140 | 76.80455 | 22855 ft | 424 kts | 44° |
| 2026-05-08 09:20 | 10.80281 | 76.82532 | 23203 ft | 427 kts | 44° |
| 2026-05-08 09:20 | 10.82442 | 76.84621 | 23519 ft | 430 kts | 44° |
| 2026-05-08 09:20 | 10.84615 | 76.86722 | 23807 ft | 432 kts | 44° |
| 2026-05-08 09:21 | 10.86803 | 76.88838 | 24062 ft | 436 kts | 44° |
| 2026-05-08 09:21 | 10.89011 | 76.90975 | 24328 ft | 439 kts | 44° |
| 2026-05-08 09:22 | 11.02681 | 77.03644 | 26120 ft | 450 kts | 31° |
| 2026-05-08 09:23 | 11.05483 | 77.05071 | 26413 ft | 451 kts | 21° |
| 2026-05-08 09:23 | 11.08488 | 77.05992 | 26732 ft | 452 kts | 12° |
| 2026-05-08 09:23 | 11.11572 | 77.06647 | 27015 ft | 454 kts | 12° |
| 2026-05-08 09:23 | 11.14703 | 77.07314 | 27294 ft | 455 kts | 12° |
| 2026-05-08 09:24 | 11.17775 | 77.07974 | 27567 ft | 457 kts | 12° |
| 2026-05-08 09:24 | 11.20931 | 77.08657 | 27836 ft | 459 kts | 12° |
| 2026-05-08 09:24 | 11.24064 | 77.09338 | 28115 ft | 461 kts | 12° |
| 2026-05-08 09:24 | 11.27164 | 77.10011 | 28381 ft | 463 kts | 12° |
| 2026-05-08 09:25 | 11.30319 | 77.10694 | 28677 ft | 464 kts | 12° |
| 2026-05-08 09:25 | 11.33487 | 77.11379 | 28847 ft | 464 kts | 12° |
| 2026-05-08 09:25 | 11.36617 | 77.12056 | 28875 ft | 457 kts | 12° |
| 2026-05-08 09:26 | 11.42808 | 77.13396 | 28874 ft | 454 kts | 12° |
| 2026-05-08 09:26 | 11.48981 | 77.14740 | 28890 ft | 453 kts | 12° |
| 2026-05-08 09:27 | 11.55150 | 77.16085 | 28890 ft | 453 kts | 12° |
| 2026-05-08 09:27 | 11.61315 | 77.17428 | 28901 ft | 453 kts | 12° |
| 2026-05-08 09:28 | 11.67484 | 77.18774 | 28897 ft | 453 kts | 12° |
| 2026-05-08 09:28 | 11.73642 | 77.20113 | 28894 ft | 453 kts | 12° |
| 2026-05-08 09:29 | 11.79802 | 77.21457 | 28897 ft | 453 kts | 12° |
| 2026-05-08 09:29 | 11.82866 | 77.22124 | 28508 ft | 448 kts | 12° |
| 2026-05-08 09:29 | 11.85905 | 77.22786 | 27942 ft | 444 kts | 12° |
| 2026-05-08 09:29 | 11.88923 | 77.23445 | 27383 ft | 440 kts | 12° |
| 2026-05-08 09:30 | 11.91912 | 77.24098 | 26859 ft | 437 kts | 12° |
| 2026-05-08 09:30 | 11.94874 | 77.24745 | 26326 ft | 434 kts | 12° |
| 2026-05-08 09:30 | 11.97822 | 77.25387 | 25828 ft | 431 kts | 12° |
| 2026-05-08 09:30 | 12.00744 | 77.26023 | 25322 ft | 428 kts | 12° |
| 2026-05-08 09:31 | 12.03649 | 77.26657 | 24839 ft | 425 kts | 12° |
| 2026-05-08 09:31 | 12.06494 | 77.27281 | 24388 ft | 422 kts | 12° |
| 2026-05-08 09:31 | 12.09358 | 77.27906 | 23923 ft | 420 kts | 13° |
| 2026-05-08 09:31 | 12.12202 | 77.28526 | 23477 ft | 417 kts | 13° |
| 2026-05-08 09:32 | 12.15005 | 77.29217 | 23018 ft | 412 kts | 19° |
| 2026-05-08 09:32 | 12.17664 | 77.30250 | 22555 ft | 407 kts | 23° |
| 2026-05-08 09:32 | 12.20274 | 77.31349 | 22072 ft | 404 kts | 23° |
| 2026-05-08 09:32 | 12.22867 | 77.32431 | 21589 ft | 400 kts | 23° |
| 2026-05-08 09:33 | 12.25436 | 77.33497 | 21119 ft | 397 kts | 22° |
| 2026-05-08 09:33 | 12.27990 | 77.34556 | 20653 ft | 394 kts | 22° |
| 2026-05-08 09:33 | 12.30525 | 77.35604 | 20187 ft | 391 kts | 22° |
| 2026-05-08 09:33 | 12.33040 | 77.36642 | 19721 ft | 389 kts | 22° |
| 2026-05-08 09:34 | 12.35538 | 77.37675 | 19265 ft | 386 kts | 22° |
| 2026-05-08 09:34 | 12.38014 | 77.38704 | 18807 ft | 383 kts | 22° |
| 2026-05-08 09:34 | 12.40472 | 77.39731 | 18352 ft | 380 kts | 22° |
| 2026-05-08 09:34 | 12.42911 | 77.40748 | 17851 ft | 377 kts | 22° |
| 2026-05-08 09:35 | 12.45338 | 77.41759 | 17366 ft | 374 kts | 22° |
| 2026-05-08 09:35 | 12.47737 | 77.42760 | 16902 ft | 370 kts | 22° |
| 2026-05-08 09:35 | 12.50112 | 77.43751 | 16426 ft | 367 kts | 22° |
| 2026-05-08 09:35 | 12.52468 | 77.44732 | 15976 ft | 363 kts | 22° |
| 2026-05-08 09:36 | 12.54803 | 77.45705 | 15468 ft | 361 kts | 23° |
| 2026-05-08 09:36 | 12.57117 | 77.46674 | 14749 ft | 366 kts | 23° |
| 2026-05-08 09:36 | 12.59482 | 77.47664 | 14042 ft | 369 kts | 23° |
| 2026-05-08 09:36 | 12.61870 | 77.48657 | 13295 ft | 371 kts | 23° |
| 2026-05-08 09:37 | 12.64271 | 77.49653 | 12526 ft | 373 kts | 23° |
| 2026-05-08 09:37 | 12.65891 | 77.50325 | 12017 ft | 373 kts | 23° |
| 2026-05-08 09:37 | 12.68296 | 77.51325 | 11266 ft | 373 kts | 24° |
| 2026-05-08 09:37 | 12.70702 | 77.52325 | 10552 ft | 373 kts | 24° |
| 2026-05-08 09:38 | 12.73103 | 77.53324 | 9841 ft | 372 kts | 24° |
| 2026-05-08 09:38 | 12.76272 | 77.54647 | 8818 ft | 371 kts | 24° |
| 2026-05-08 09:38 | 12.77886 | 77.55321 | 8296 ft | 370 kts | 24° |
| 2026-05-08 09:38 | 12.80236 | 77.56305 | 7581 ft | 368 kts | 24° |
| 2026-05-08 09:39 | 12.82585 | 77.57286 | 7117 ft | 358 kts | 24° |
| 2026-05-08 09:39 | 12.84834 | 77.58222 | 7070 ft | 338 kts | 24° |
| 2026-05-08 09:39 | 12.86919 | 77.59088 | 7081 ft | 308 kts | 24° |
| 2026-05-08 09:39 | 12.88821 | 77.59859 | 7082 ft | 281 kts | 19° |
| 2026-05-08 09:40 | 12.90664 | 77.60202 | 7083 ft | 259 kts | 5° |
| 2026-05-08 09:40 | 12.92400 | 77.60159 | 7086 ft | 239 kts | 1° |
| 2026-05-08 09:40 | 12.94042 | 77.60104 | 7084 ft | 236 kts | 1° |
| 2026-05-08 09:40 | 12.95685 | 77.60054 | 7089 ft | 236 kts | 1° |
| 2026-05-08 09:41 | 12.97326 | 77.60003 | 7093 ft | 236 kts | 2° |
| 2026-05-08 09:41 | 12.98964 | 77.59952 | 7093 ft | 235 kts | 2° |
| 2026-05-08 09:41 | 13.00594 | 77.59899 | 7006 ft | 235 kts | 1° |
| 2026-05-08 09:41 | 13.02221 | 77.59846 | 6890 ft | 233 kts | 1° |
| 2026-05-08 09:42 | 13.03848 | 77.59792 | 6776 ft | 234 kts | 1° |
| 2026-05-08 09:42 | 13.05469 | 77.59738 | 6658 ft | 233 kts | 1° |
| 2026-05-08 09:42 | 13.07094 | 77.59683 | 6538 ft | 233 kts | 2° |
| 2026-05-08 09:42 | 13.08685 | 77.59371 | 6428 ft | 237 kts | 339° |
| 2026-05-08 09:43 | 13.09965 | 77.58334 | 6309 ft | 243 kts | 309° |
| 2026-05-08 09:43 | 13.10612 | 77.56722 | 6192 ft | 250 kts | 276° |
| 2026-05-08 09:43 | 13.10646 | 77.54939 | 6073 ft | 250 kts | 271° |
| 2026-05-08 09:43 | 13.10649 | 77.53146 | 5950 ft | 253 kts | 271° |
| 2026-05-08 09:44 | 13.10656 | 77.51344 | 6026 ft | 251 kts | 271° |
| 2026-05-08 09:44 | 13.10666 | 77.49541 | 6268 ft | 253 kts | 271° |
| 2026-05-08 09:44 | 13.10676 | 77.47735 | 6498 ft | 253 kts | 271° |
| 2026-05-08 09:44 | 13.10687 | 77.45980 | 6714 ft | 236 kts | 271° |
| 2026-05-08 09:45 | 13.10753 | 77.44339 | 6902 ft | 226 kts | 283° |
| 2026-05-08 09:45 | 13.11403 | 77.42919 | 6947 ft | 219 kts | 314° |
| 2026-05-08 09:45 | 13.12597 | 77.42018 | 6960 ft | 212 kts | 342° |
| 2026-05-08 09:45 | 13.14019 | 77.41783 | 6961 ft | 206 kts | 8° |